sensor_id;sensor_type;location;lat;lon;timestamp;pressure;altitude;pressure_sealevel;temperature;humidity
76598;BME280;65486;53.144;18.134;2023-07-22T00:01:52;100495.58;;;16.86;66.53
76598;BME280;65486;53.144;18.134;2023-07-22T00:04:25;100495.11;;;16.85;66.93
76598;BME280;65486;53.144;18.134;2023-07-22T00:06:53;100497.42;;;16.81;66.56
76598;BME280;65486;53.144;18.134;2023-07-22T00:09:20;100494.90;;;16.77;66.31
76598;BME280;65486;53.144;18.134;2023-07-22T00:11:50;100497.72;;;16.74;67.49
76598;BME280;65486;53.144;18.134;2023-07-22T00:14:19;100501.84;;;16.74;68.11
76598;BME280;65486;53.144;18.134;2023-07-22T00:16:50;100506.02;;;16.72;67.39
76598;BME280;65486;53.144;18.134;2023-07-22T00:19:19;100506.56;;;16.70;67.52
76598;BME280;65486;53.144;18.134;2023-07-22T00:21:46;100503.59;;;16.67;67.72
76598;BME280;65486;53.144;18.134;2023-07-22T00:24:15;100501.34;;;16.63;67.86
76598;BME280;65486;53.144;18.134;2023-07-22T00:26:46;100495.56;;;16.58;67.97
76598;BME280;65486;53.144;18.134;2023-07-22T00:29:12;100494.62;;;16.54;67.70
76598;BME280;65486;53.144;18.134;2023-07-22T00:31:40;100491.54;;;16.49;67.98
76598;BME280;65486;53.144;18.134;2023-07-22T00:34:10;100482.38;;;16.45;68.20
76598;BME280;65486;53.144;18.134;2023-07-22T00:36:39;100477.23;;;16.40;68.29
76598;BME280;65486;53.144;18.134;2023-07-22T00:39:07;100471.30;;;16.37;68.62
76598;BME280;65486;53.144;18.134;2023-07-22T00:41:34;100468.05;;;16.33;68.43
76598;BME280;65486;53.144;18.134;2023-07-22T00:44:01;100470.20;;;16.31;68.83
76598;BME280;65486;53.144;18.134;2023-07-22T00:46:28;100470.11;;;16.26;68.46
76598;BME280;65486;53.144;18.134;2023-07-22T00:48:58;100473.39;;;16.26;68.51
76598;BME280;65486;53.144;18.134;2023-07-22T00:51:24;100477.38;;;16.22;68.85
76598;BME280;65486;53.144;18.134;2023-07-22T00:53:51;100468.67;;;16.18;68.98
76598;BME280;65486;53.144;18.134;2023-07-22T00:56:19;100466.14;;;16.13;69.13
76598;BME280;65486;53.144;18.134;2023-07-22T00:58:46;100463.77;;;16.10;68.79
76598;BME280;65486;53.144;18.134;2023-07-22T01:01:13;100456.59;;;16.10;68.70
76598;BME280;65486;53.144;18.134;2023-07-22T01:03:40;100456.21;;;16.11;68.71
76598;BME280;65486;53.144;18.134;2023-07-22T01:06:07;100460.54;;;16.09;68.77
76598;BME280;65486;53.144;18.134;2023-07-22T01:08:36;100455.83;;;16.05;68.95
76598;BME280;65486;53.144;18.134;2023-07-22T01:11:03;100457.32;;;16.03;68.85
76598;BME280;65486;53.144;18.134;2023-07-22T01:13:31;100449.65;;;16.04;68.74
76598;BME280;65486;53.144;18.134;2023-07-22T01:16:01;100452.61;;;16.07;68.86
76598;BME280;65486;53.144;18.134;2023-07-22T01:18:30;100459.35;;;16.08;68.83
76598;BME280;65486;53.144;18.134;2023-07-22T01:20:59;100459.86;;;16.08;69.05
76598;BME280;65486;53.144;18.134;2023-07-22T01:23:26;100457.52;;;16.09;69.34
76598;BME280;65486;53.144;18.134;2023-07-22T01:25:54;100458.48;;;16.10;69.22
76598;BME280;65486;53.144;18.134;2023-07-22T01:28:23;100462.72;;;16.10;69.28
76598;BME280;65486;53.144;18.134;2023-07-22T01:30:50;100449.53;;;16.11;69.24
76598;BME280;65486;53.144;18.134;2023-07-22T01:33:17;100440.34;;;16.11;69.15
76598;BME280;65486;53.144;18.134;2023-07-22T01:35:43;100438.63;;;16.12;68.93
76598;BME280;65486;53.144;18.134;2023-07-22T01:38:10;100445.48;;;16.13;69.12
76598;BME280;65486;53.144;18.134;2023-07-22T01:40:37;100443.31;;;16.12;69.21
76598;BME280;65486;53.144;18.134;2023-07-22T01:43:04;100446.58;;;16.10;69.28
76598;BME280;65486;53.144;18.134;2023-07-22T01:45:31;100440.73;;;16.08;69.08
76598;BME280;65486;53.144;18.134;2023-07-22T01:47:59;100440.26;;;16.05;69.33
76598;BME280;65486;53.144;18.134;2023-07-22T01:50:25;100442.14;;;16.03;69.31
76598;BME280;65486;53.144;18.134;2023-07-22T01:52:52;100440.83;;;15.99;69.23
76598;BME280;65486;53.144;18.134;2023-07-22T01:55:19;100443.08;;;15.95;69.27
76598;BME280;65486;53.144;18.134;2023-07-22T01:57:46;100443.87;;;15.91;69.44
76598;BME280;65486;53.144;18.134;2023-07-22T02:00:13;100440.41;;;15.89;69.85
76598;BME280;65486;53.144;18.134;2023-07-22T02:02:42;100437.34;;;15.87;69.60
76598;BME280;65486;53.144;18.134;2023-07-22T02:05:09;100430.53;;;15.86;69.85
76598;BME280;65486;53.144;18.134;2023-07-22T02:07:37;100430.59;;;15.85;70.24
76598;BME280;65486;53.144;18.134;2023-07-22T02:10:05;100435.73;;;15.83;69.96
76598;BME280;65486;53.144;18.134;2023-07-22T02:12:34;100441.17;;;15.81;69.99
76598;BME280;65486;53.144;18.134;2023-07-22T02:15:03;100433.83;;;15.81;70.07
76598;BME280;65486;53.144;18.134;2023-07-22T02:17:30;100437.40;;;15.82;69.98
76598;BME280;65486;53.144;18.134;2023-07-22T02:19:57;100437.88;;;15.80;69.96
76598;BME280;65486;53.144;18.134;2023-07-22T02:22:29;100434.23;;;15.83;70.17
76598;BME280;65486;53.144;18.134;2023-07-22T02:24:56;100432.20;;;15.84;70.02
76598;BME280;65486;53.144;18.134;2023-07-22T02:27:23;100433.52;;;15.83;69.85
76598;BME280;65486;53.144;18.134;2023-07-22T02:29:51;100426.77;;;15.81;70.01
76598;BME280;65486;53.144;18.134;2023-07-22T02:32:20;100424.83;;;15.81;70.35
76598;BME280;65486;53.144;18.134;2023-07-22T02:34:47;100422.70;;;15.79;70.30
76598;BME280;65486;53.144;18.134;2023-07-22T02:37:14;100424.45;;;15.76;70.33
76598;BME280;65486;53.144;18.134;2023-07-22T02:39:43;100426.50;;;15.74;70.42
76598;BME280;65486;53.144;18.134;2023-07-22T02:42:14;100424.52;;;15.72;70.37
76598;BME280;65486;53.144;18.134;2023-07-22T02:44:41;100433.23;;;15.69;70.51
76598;BME280;65486;53.144;18.134;2023-07-22T02:47:10;100429.55;;;15.67;70.63
76598;BME280;65486;53.144;18.134;2023-07-22T02:49:38;100436.91;;;15.69;70.76
76598;BME280;65486;53.144;18.134;2023-07-22T02:52:26;100436.88;;;15.67;70.81
76598;BME280;65486;53.144;18.134;2023-07-22T02:55:11;100442.31;;;15.64;70.77
76598;BME280;65486;53.144;18.134;2023-07-22T02:57:40;100445.06;;;15.61;71.03
76598;BME280;65486;53.144;18.134;2023-07-22T03:00:08;100441.11;;;15.61;71.17
76598;BME280;65486;53.144;18.134;2023-07-22T03:02:39;100446.58;;;15.58;71.08
76598;BME280;65486;53.144;18.134;2023-07-22T03:05:07;100449.15;;;15.54;71.18
76598;BME280;65486;53.144;18.134;2023-07-22T03:07:35;100449.16;;;15.53;71.32
76598;BME280;65486;53.144;18.134;2023-07-22T03:10:06;100445.95;;;15.50;71.38
76598;BME280;65486;53.144;18.134;2023-07-22T03:12:36;100457.00;;;15.53;71.81
76598;BME280;65486;53.144;18.134;2023-07-22T03:15:07;100461.23;;;15.55;71.73
76598;BME280;65486;53.144;18.134;2023-07-22T03:17:36;100461.41;;;15.55;71.82
76598;BME280;65486;53.144;18.134;2023-07-22T03:20:11;100457.00;;;15.54;72.19
76598;BME280;65486;53.144;18.134;2023-07-22T03:22:54;100455.71;;;15.53;71.88
76598;BME280;65486;53.144;18.134;2023-07-22T03:25:26;100456.73;;;15.52;71.87
76598;BME280;65486;53.144;18.134;2023-07-22T03:27:55;100458.04;;;15.50;71.77
76598;BME280;65486;53.144;18.134;2023-07-22T03:30:22;100455.30;;;15.50;71.97
76598;BME280;65486;53.144;18.134;2023-07-22T03:32:50;100453.20;;;15.49;71.93
76598;BME280;65486;53.144;18.134;2023-07-22T03:35:19;100457.55;;;15.46;71.91
76598;BME280;65486;53.144;18.134;2023-07-22T03:37:46;100455.50;;;15.47;72.03
76598;BME280;65486;53.144;18.134;2023-07-22T03:40:15;100455.86;;;15.48;71.98
76598;BME280;65486;53.144;18.134;2023-07-22T03:42:57;100456.81;;;15.49;72.03
76598;BME280;65486;53.144;18.134;2023-07-22T03:45:29;100454.59;;;15.52;72.24
76598;BME280;65486;53.144;18.134;2023-07-22T03:48:18;100457.30;;;15.57;72.05
76598;BME280;65486;53.144;18.134;2023-07-22T03:50:46;100458.60;;;15.60;71.91
76598;BME280;65486;53.144;18.134;2023-07-22T03:53:14;100460.91;;;15.62;71.82
76598;BME280;65486;53.144;18.134;2023-07-22T03:55:41;100464.09;;;15.63;71.74
76598;BME280;65486;53.144;18.134;2023-07-22T03:58:09;100463.52;;;15.66;71.87
76598;BME280;65486;53.144;18.134;2023-07-22T04:00:37;100464.96;;;15.72;71.99
76598;BME280;65486;53.144;18.134;2023-07-22T04:03:06;100469.79;;;15.79;71.79
76598;BME280;65486;53.144;18.134;2023-07-22T04:05:35;100473.13;;;15.85;71.66
76598;BME280;65486;53.144;18.134;2023-07-22T04:08:06;100472.80;;;15.91;71.55
76598;BME280;65486;53.144;18.134;2023-07-22T04:10:34;100472.84;;;15.97;71.58
76598;BME280;65486;53.144;18.134;2023-07-22T04:13:02;100469.52;;;16.04;71.61
76598;BME280;65486;53.144;18.134;2023-07-22T04:15:29;100465.23;;;16.07;71.86
76598;BME280;65486;53.144;18.134;2023-07-22T04:18:01;100464.45;;;16.07;71.81
76598;BME280;65486;53.144;18.134;2023-07-22T04:20:31;100465.25;;;16.08;71.88
76598;BME280;65486;53.144;18.134;2023-07-22T04:22:59;100471.88;;;16.08;71.85
76598;BME280;65486;53.144;18.134;2023-07-22T04:25:29;100474.56;;;16.10;71.96
76598;BME280;65486;53.144;18.134;2023-07-22T04:27:57;100469.39;;;16.11;71.94
76598;BME280;65486;53.144;18.134;2023-07-22T04:30:24;100470.65;;;16.08;71.87
76598;BME280;65486;53.144;18.134;2023-07-22T04:32:51;100472.44;;;16.08;72.03
76598;BME280;65486;53.144;18.134;2023-07-22T04:35:24;100475.20;;;16.20;71.89
76598;BME280;65486;53.144;18.134;2023-07-22T04:37:53;100475.19;;;16.36;71.60
76598;BME280;65486;53.144;18.134;2023-07-22T04:40:43;100480.45;;;16.46;71.40
76598;BME280;65486;53.144;18.134;2023-07-22T04:43:13;100482.30;;;16.56;71.10
76598;BME280;65486;53.144;18.134;2023-07-22T04:45:41;100481.63;;;16.72;70.53
76598;BME280;65486;53.144;18.134;2023-07-22T04:48:14;100481.70;;;17.02;70.11
76598;BME280;65486;53.144;18.134;2023-07-22T04:50:44;100479.23;;;17.30;69.40
76598;BME280;65486;53.144;18.134;2023-07-22T04:53:12;100478.63;;;17.49;68.99
76598;BME280;65486;53.144;18.134;2023-07-22T04:55:43;100477.34;;;17.65;68.59
76598;BME280;65486;53.144;18.134;2023-07-22T04:58:10;100482.89;;;17.81;68.29
76598;BME280;65486;53.144;18.134;2023-07-22T05:00:41;100487.75;;;17.97;67.80
76598;BME280;65486;53.144;18.134;2023-07-22T05:03:20;100486.86;;;18.14;67.01
76598;BME280;65486;53.144;18.134;2023-07-22T05:05:48;100483.16;;;18.25;66.67
76598;BME280;65486;53.144;18.134;2023-07-22T05:08:17;100484.36;;;18.43;66.48
76598;BME280;65486;53.144;18.134;2023-07-22T05:10:52;100481.40;;;18.61;66.07
76598;BME280;65486;53.144;18.134;2023-07-22T05:13:20;100482.29;;;18.79;65.55
76598;BME280;65486;53.144;18.134;2023-07-22T05:15:47;100483.89;;;18.92;64.93
76598;BME280;65486;53.144;18.134;2023-07-22T05:18:14;100481.90;;;19.09;64.26
76598;BME280;65486;53.144;18.134;2023-07-22T05:20:46;100481.98;;;19.53;63.46
76598;BME280;65486;53.144;18.134;2023-07-22T05:23:13;100487.22;;;20.16;62.11
76598;BME280;65486;53.144;18.134;2023-07-22T05:25:40;100486.73;;;20.57;61.00
76598;BME280;65486;53.144;18.134;2023-07-22T05:28:11;100482.58;;;20.74;60.85
76598;BME280;65486;53.144;18.134;2023-07-22T05:30:41;100482.85;;;20.90;60.34
76598;BME280;65486;53.144;18.134;2023-07-22T05:33:12;100477.24;;;21.13;59.84
76598;BME280;65486;53.144;18.134;2023-07-22T05:35:39;100473.79;;;21.95;58.18
76598;BME280;65486;53.144;18.134;2023-07-22T05:38:06;100471.60;;;23.00;56.11
76598;BME280;65486;53.144;18.134;2023-07-22T05:40:33;100472.45;;;24.05;53.82
76598;BME280;65486;53.144;18.134;2023-07-22T05:43:04;100470.20;;;24.99;51.80
76598;BME280;65486;53.144;18.134;2023-07-22T05:45:34;100464.93;;;25.84;50.52
76598;BME280;65486;53.144;18.134;2023-07-22T05:48:01;100464.13;;;26.69;48.33
76598;BME280;65486;53.144;18.134;2023-07-22T05:50:29;100462.08;;;27.40;46.94
76598;BME280;65486;53.144;18.134;2023-07-22T05:52:57;100461.09;;;28.00;45.53
76598;BME280;65486;53.144;18.134;2023-07-22T05:55:24;100457.04;;;28.52;44.54
76598;BME280;65486;53.144;18.134;2023-07-22T05:57:51;100448.35;;;29.05;42.17
76598;BME280;65486;53.144;18.134;2023-07-22T06:00:19;100453.89;;;29.57;41.59
76598;BME280;65486;53.144;18.134;2023-07-22T06:02:48;100455.27;;;30.20;39.78
76598;BME280;65486;53.144;18.134;2023-07-22T06:05:15;100445.38;;;30.76;38.81
76598;BME280;65486;53.144;18.134;2023-07-22T06:07:44;100452.33;;;31.44;36.53
76598;BME280;65486;53.144;18.134;2023-07-22T06:10:12;100449.39;;;31.77;35.12
76598;BME280;65486;53.144;18.134;2023-07-22T06:12:40;100445.48;;;32.01;34.66
76598;BME280;65486;53.144;18.134;2023-07-22T06:15:08;100450.00;;;32.24;32.86
76598;BME280;65486;53.144;18.134;2023-07-22T06:17:37;100444.82;;;32.42;32.10
76598;BME280;65486;53.144;18.134;2023-07-22T06:20:05;100452.64;;;32.69;32.00
76598;BME280;65486;53.144;18.134;2023-07-22T06:22:36;100460.15;;;33.07;31.60
76598;BME280;65486;53.144;18.134;2023-07-22T06:25:05;100466.41;;;33.33;29.94
76598;BME280;65486;53.144;18.134;2023-07-22T06:27:34;100460.73;;;33.51;29.54
76598;BME280;65486;53.144;18.134;2023-07-22T06:30:05;100461.14;;;33.61;29.78
76598;BME280;65486;53.144;18.134;2023-07-22T06:32:36;100457.36;;;33.80;29.26
76598;BME280;65486;53.144;18.134;2023-07-22T06:35:04;100456.88;;;33.99;28.37
76598;BME280;65486;53.144;18.134;2023-07-22T06:37:31;100453.94;;;34.12;27.34
76598;BME280;65486;53.144;18.134;2023-07-22T06:39:59;100455.02;;;34.00;27.34
76598;BME280;65486;53.144;18.134;2023-07-22T06:42:27;100456.70;;;34.10;27.13
76598;BME280;65486;53.144;18.134;2023-07-22T06:44:55;100457.83;;;34.47;26.57
76598;BME280;65486;53.144;18.134;2023-07-22T06:47:25;100461.66;;;34.61;25.77
76598;BME280;65486;53.144;18.134;2023-07-22T06:50:04;100461.39;;;34.79;25.57
76598;BME280;65486;53.144;18.134;2023-07-22T06:52:33;100459.15;;;35.12;25.48
76598;BME280;65486;53.144;18.134;2023-07-22T06:55:04;100459.36;;;35.08;25.46
76598;BME280;65486;53.144;18.134;2023-07-22T06:57:32;100453.50;;;35.19;25.11
76598;BME280;65486;53.144;18.134;2023-07-22T06:59:59;100456.80;;;35.21;24.79
76598;BME280;65486;53.144;18.134;2023-07-22T07:02:32;100462.42;;;35.49;24.80
76598;BME280;65486;53.144;18.134;2023-07-22T07:05:00;100464.17;;;35.88;23.96
76598;BME280;65486;53.144;18.134;2023-07-22T07:07:29;100463.64;;;35.96;23.56
76598;BME280;65486;53.144;18.134;2023-07-22T07:09:56;100463.04;;;35.90;23.94
76598;BME280;65486;53.144;18.134;2023-07-22T07:12:26;100464.48;;;35.99;23.59
76598;BME280;65486;53.144;18.134;2023-07-22T07:14:54;100471.66;;;36.09;23.49
76598;BME280;65486;53.144;18.134;2023-07-22T07:17:23;100467.89;;;36.11;23.59
76598;BME280;65486;53.144;18.134;2023-07-22T07:19:50;100467.27;;;36.15;23.55
76598;BME280;65486;53.144;18.134;2023-07-22T07:22:17;100467.51;;;36.14;23.18
76598;BME280;65486;53.144;18.134;2023-07-22T07:24:44;100463.86;;;36.07;22.94
76598;BME280;65486;53.144;18.134;2023-07-22T07:27:11;100467.52;;;36.02;23.29
76598;BME280;65486;53.144;18.134;2023-07-22T07:29:47;100468.84;;;35.89;23.17
76598;BME280;65486;53.144;18.134;2023-07-22T07:32:33;100474.97;;;34.66;24.13
76598;BME280;65486;53.144;18.134;2023-07-22T07:35:00;100480.83;;;33.66;24.95
76598;BME280;65486;53.144;18.134;2023-07-22T07:37:28;100481.41;;;32.99;25.85
76598;BME280;65486;53.144;18.134;2023-07-22T07:39:56;100486.17;;;32.55;26.32
76598;BME280;65486;53.144;18.134;2023-07-22T07:42:27;100482.61;;;33.02;26.11
76598;BME280;65486;53.144;18.134;2023-07-22T07:44:56;100483.66;;;33.10;26.07
76598;BME280;65486;53.144;18.134;2023-07-22T07:47:23;100489.10;;;33.57;25.23
76598;BME280;65486;53.144;18.134;2023-07-22T07:49:50;100488.85;;;33.62;25.04
76598;BME280;65486;53.144;18.134;2023-07-22T07:52:20;100488.35;;;33.93;24.93
76598;BME280;65486;53.144;18.134;2023-07-22T07:54:50;100490.34;;;34.12;24.81
76598;BME280;65486;53.144;18.134;2023-07-22T07:57:23;100487.01;;;34.73;24.06
76598;BME280;65486;53.144;18.134;2023-07-22T07:59:50;100488.92;;;35.34;23.31
76598;BME280;65486;53.144;18.134;2023-07-22T08:02:18;100488.27;;;35.75;22.80
76598;BME280;65486;53.144;18.134;2023-07-22T08:04:47;100490.08;;;36.04;22.58
76598;BME280;65486;53.144;18.134;2023-07-22T08:07:18;100490.55;;;36.12;22.29
76598;BME280;65486;53.144;18.134;2023-07-22T08:09:47;100490.77;;;35.41;22.45
76598;BME280;65486;53.144;18.134;2023-07-22T08:14:54;100498.19;;;33.39;24.08
76598;BME280;65486;53.144;18.134;2023-07-22T08:17:29;100503.00;;;32.40;25.08
76598;BME280;65486;53.144;18.134;2023-07-22T08:20:04;100509.89;;;31.31;26.27
76598;BME280;65486;53.144;18.134;2023-07-22T08:22:33;100511.48;;;30.72;27.10
76598;BME280;65486;53.144;18.134;2023-07-22T08:25:00;100508.79;;;31.42;26.94
76598;BME280;65486;53.144;18.134;2023-07-22T08:27:28;100508.95;;;31.75;27.09
76598;BME280;65486;53.144;18.134;2023-07-22T08:29:55;100508.11;;;32.39;26.60
76598;BME280;65486;53.144;18.134;2023-07-22T08:32:23;100506.41;;;32.51;26.37
76598;BME280;65486;53.144;18.134;2023-07-22T08:34:50;100508.26;;;32.42;26.78
76598;BME280;65486;53.144;18.134;2023-07-22T08:37:18;100505.89;;;33.08;26.05
76598;BME280;65486;53.144;18.134;2023-07-22T08:39:44;100514.60;;;33.83;25.21
76598;BME280;65486;53.144;18.134;2023-07-22T08:42:13;100516.33;;;34.60;24.48
76598;BME280;65486;53.144;18.134;2023-07-22T08:44:44;100513.69;;;35.36;23.55
76598;BME280;65486;53.144;18.134;2023-07-22T08:47:17;100512.45;;;35.99;22.87
76598;BME280;65486;53.144;18.134;2023-07-22T08:49:51;100523.14;;;36.33;21.99
76598;BME280;65486;53.144;18.134;2023-07-22T08:52:23;100526.69;;;36.39;21.95
76598;BME280;65486;53.144;18.134;2023-07-22T08:54:51;100528.85;;;35.16;22.58
76598;BME280;65486;53.144;18.134;2023-07-22T08:57:21;100536.20;;;33.46;24.49
76598;BME280;65486;53.144;18.134;2023-07-22T08:59:49;100540.76;;;32.25;25.99
76598;BME280;65486;53.144;18.134;2023-07-22T09:02:24;100537.93;;;32.64;26.05
76598;BME280;65486;53.144;18.134;2023-07-22T09:04:53;100536.75;;;33.31;25.40
76598;BME280;65486;53.144;18.134;2023-07-22T09:07:23;100536.12;;;33.63;25.01
76598;BME280;65486;53.144;18.134;2023-07-22T09:10:06;100536.98;;;33.33;25.17
76598;BME280;65486;53.144;18.134;2023-07-22T09:12:36;100541.88;;;33.37;25.27
76598;BME280;65486;53.144;18.134;2023-07-22T09:15:09;100544.33;;;33.20;25.59
76598;BME280;65486;53.144;18.134;2023-07-22T09:17:39;100545.84;;;32.84;26.09
76598;BME280;65486;53.144;18.134;2023-07-22T09:20:06;100545.92;;;31.84;27.37
76598;BME280;65486;53.144;18.134;2023-07-22T09:22:35;100555.58;;;30.76;29.14
76598;BME280;65486;53.144;18.134;2023-07-22T09:25:35;100557.75;;;29.79;30.17
76598;BME280;65486;53.144;18.134;2023-07-22T09:28:07;100561.70;;;28.92;31.68
76598;BME280;65486;53.144;18.134;2023-07-22T09:30:38;100570.70;;;28.24;32.76
76598;BME280;65486;53.144;18.134;2023-07-22T09:33:08;100575.55;;;27.52;33.93
76598;BME280;65486;53.144;18.134;2023-07-22T09:35:48;100580.46;;;27.25;34.85
76598;BME280;65486;53.144;18.134;2023-07-22T09:38:24;100579.02;;;27.71;34.76
76598;BME280;65486;53.144;18.134;2023-07-22T09:41:00;100581.77;;;27.67;35.19
76598;BME280;65486;53.144;18.134;2023-07-22T09:43:39;100585.65;;;27.56;35.68
76598;BME280;65486;53.144;18.134;2023-07-22T09:46:10;100587.81;;;27.90;35.39
76598;BME280;65486;53.144;18.134;2023-07-22T09:48:51;100585.09;;;28.78;34.47
76598;BME280;65486;53.144;18.134;2023-07-22T09:51:20;100584.05;;;30.02;32.56
76598;BME280;65486;53.144;18.134;2023-07-22T09:54:00;100590.21;;;30.92;31.02
76598;BME280;65486;53.144;18.134;2023-07-22T09:56:28;100591.02;;;30.47;31.48
76598;BME280;65486;53.144;18.134;2023-07-22T09:59:04;100594.77;;;29.56;32.28
76598;BME280;65486;53.144;18.134;2023-07-22T10:01:33;100590.21;;;28.36;33.89
76598;BME280;65486;53.144;18.134;2023-07-22T10:04:12;100596.23;;;27.55;35.06
76598;BME280;65486;53.144;18.134;2023-07-22T10:09:42;100609.14;;;26.13;37.22
76598;BME280;65486;53.144;18.134;2023-07-22T10:12:10;100615.06;;;25.93;37.63
76598;BME280;65486;53.144;18.134;2023-07-22T10:14:45;100610.46;;;27.10;36.27
76598;BME280;65486;53.144;18.134;2023-07-22T10:17:15;100615.67;;;26.96;36.19
76598;BME280;65486;53.144;18.134;2023-07-22T10:19:43;100615.67;;;26.83;36.34
76598;BME280;65486;53.144;18.134;2023-07-22T10:22:11;100607.49;;;27.73;35.19
76598;BME280;65486;53.144;18.134;2023-07-22T10:24:39;100609.51;;;28.72;33.99
76598;BME280;65486;53.144;18.134;2023-07-22T10:27:09;100606.98;;;28.73;33.74
76598;BME280;65486;53.144;18.134;2023-07-22T10:29:38;100604.77;;;29.75;32.18
76598;BME280;65486;53.144;18.134;2023-07-22T10:32:06;100604.46;;;30.64;30.42
76598;BME280;65486;53.144;18.134;2023-07-22T10:34:33;100603.89;;;31.32;29.78
76598;BME280;65486;53.144;18.134;2023-07-22T10:37:00;100603.37;;;31.97;27.87
76598;BME280;65486;53.144;18.134;2023-07-22T10:39:28;100600.52;;;32.05;27.75
76598;BME280;65486;53.144;18.134;2023-07-22T10:42:03;100597.11;;;31.47;27.99
76598;BME280;65486;53.144;18.134;2023-07-22T10:44:38;100601.71;;;30.84;27.74
76598;BME280;65486;53.144;18.134;2023-07-22T10:47:07;100601.02;;;31.05;27.68
76598;BME280;65486;53.144;18.134;2023-07-22T10:49:48;100598.02;;;31.44;27.39
76598;BME280;65486;53.144;18.134;2023-07-22T10:52:40;100596.20;;;31.97;26.74
76598;BME280;65486;53.144;18.134;2023-07-22T10:58:23;100597.84;;;32.80;25.64
76598;BME280;65486;53.144;18.134;2023-07-22T11:00:51;100595.58;;;33.01;25.55
76598;BME280;65486;53.144;18.134;2023-07-22T11:03:22;100602.33;;;32.69;25.58
76598;BME280;65486;53.144;18.134;2023-07-22T11:05:51;100601.52;;;32.54;25.02
76598;BME280;65486;53.144;18.134;2023-07-22T11:08:39;100604.13;;;32.51;24.92
76598;BME280;65486;53.144;18.134;2023-07-22T11:11:12;100600.78;;;32.55;24.77
76598;BME280;65486;53.144;18.134;2023-07-22T11:13:43;100608.69;;;32.18;25.05
76598;BME280;65486;53.144;18.134;2023-07-22T11:16:11;100605.45;;;32.25;25.12
76598;BME280;65486;53.144;18.134;2023-07-22T11:18:41;100599.85;;;31.74;25.33
76598;BME280;65486;53.144;18.134;2023-07-22T11:21:10;100612.31;;;30.99;26.21
76598;BME280;65486;53.144;18.134;2023-07-22T11:23:40;100612.19;;;30.25;26.91
76598;BME280;65486;53.144;18.134;2023-07-22T11:29:09;100609.91;;;29.33;28.22
76598;BME280;65486;53.144;18.134;2023-07-22T11:31:48;100609.00;;;29.44;28.29
76598;BME280;65486;53.144;18.134;2023-07-22T11:34:21;100606.30;;;30.01;27.03
76598;BME280;65486;53.144;18.134;2023-07-22T11:36:56;100606.14;;;30.44;26.46
76598;BME280;65486;53.144;18.134;2023-07-22T11:39:26;100605.46;;;30.93;25.88
76598;BME280;65486;53.144;18.134;2023-07-22T11:41:54;100596.98;;;31.26;25.06
76598;BME280;65486;53.144;18.134;2023-07-22T11:44:22;100597.66;;;31.24;24.72
76598;BME280;65486;53.144;18.134;2023-07-22T11:47:09;100596.02;;;31.07;24.50
76598;BME280;65486;53.144;18.134;2023-07-22T11:53:26;100596.82;;;31.23;23.74
76598;BME280;65486;53.144;18.134;2023-07-22T11:55:59;100601.75;;;31.19;24.01
76598;BME280;65486;53.144;18.134;2023-07-22T11:58:26;100595.04;;;31.21;24.23
76598;BME280;65486;53.144;18.134;2023-07-22T12:01:03;100601.09;;;31.55;23.94
76598;BME280;65486;53.144;18.134;2023-07-22T12:03:32;100595.94;;;31.84;23.61
76598;BME280;65486;53.144;18.134;2023-07-22T12:06:11;100594.90;;;31.71;23.32
76598;BME280;65486;53.144;18.134;2023-07-22T12:08:47;100600.16;;;31.18;23.93
76598;BME280;65486;53.144;18.134;2023-07-22T12:11:20;100608.37;;;30.33;24.88
76598;BME280;65486;53.144;18.134;2023-07-22T12:14:11;100612.21;;;29.46;25.30
76598;BME280;65486;53.144;18.134;2023-07-22T12:16:40;100610.48;;;28.78;26.42
76598;BME280;65486;53.144;18.134;2023-07-22T12:19:10;100604.88;;;28.86;26.63
76598;BME280;65486;53.144;18.134;2023-07-22T12:21:37;100591.23;;;29.03;26.96
76598;BME280;65486;53.144;18.134;2023-07-22T12:24:07;100608.77;;;29.51;26.98
76598;BME280;65486;53.144;18.134;2023-07-22T12:26:36;100605.13;;;29.85;26.31
76598;BME280;65486;53.144;18.134;2023-07-22T12:29:04;100602.98;;;29.84;26.15
76598;BME280;65486;53.144;18.134;2023-07-22T12:31:30;100604.11;;;29.79;26.41
76598;BME280;65486;53.144;18.134;2023-07-22T12:34:01;100604.53;;;29.85;26.38
76598;BME280;65486;53.144;18.134;2023-07-22T12:36:28;100603.40;;;29.68;26.46
76598;BME280;65486;53.144;18.134;2023-07-22T12:38:55;100601.27;;;29.36;25.11
76598;BME280;65486;53.144;18.134;2023-07-22T12:41:29;100602.11;;;28.97;25.32
76598;BME280;65486;53.144;18.134;2023-07-22T12:43:57;100601.05;;;28.73;24.91
76598;BME280;65486;53.144;18.134;2023-07-22T12:46:24;100599.52;;;28.43;25.55
76598;BME280;65486;53.144;18.134;2023-07-22T12:48:53;100600.79;;;28.12;26.03
76598;BME280;65486;53.144;18.134;2023-07-22T12:51:21;100616.20;;;27.75;26.57
76598;BME280;65486;53.144;18.134;2023-07-22T12:53:48;100625.86;;;27.47;26.71
76598;BME280;65486;53.144;18.134;2023-07-22T12:56:15;100617.83;;;27.25;26.92
76598;BME280;65486;53.144;18.134;2023-07-22T12:58:44;100623.36;;;26.91;27.55
76598;BME280;65486;53.144;18.134;2023-07-22T13:01:14;100622.39;;;26.55;27.95
76598;BME280;65486;53.144;18.134;2023-07-22T13:03:42;100620.84;;;26.20;28.55
76598;BME280;65486;53.144;18.134;2023-07-22T13:06:10;100624.94;;;26.02;28.70
76598;BME280;65486;53.144;18.134;2023-07-22T13:08:37;100622.51;;;25.95;28.98
76598;BME280;65486;53.144;18.134;2023-07-22T13:11:04;100626.00;;;25.98;29.28